createdAt,value
2022-11-25T00:01:26.147Z,10.70
2022-11-25T00:03:56.460Z,10.75
2022-11-25T00:06:33.445Z,11.00
2022-11-25T00:09:06.612Z,10.70
2022-11-25T00:11:39.236Z,11.77
2022-11-25T00:14:07.950Z,10.93
2022-11-25T00:16:34.791Z,11.10
2022-11-25T00:19:01.683Z,10.90
2022-11-25T00:21:32.702Z,11.23
2022-11-25T00:24:03.372Z,10.45
2022-11-25T00:26:32.688Z,10.15
2022-11-25T00:29:04.158Z,10.18
2022-11-25T00:31:34.761Z,10.02
2022-11-25T00:34:01.827Z,9.50
2022-11-25T00:36:36.301Z,10.52
2022-11-25T00:39:11.271Z,8.48
2022-11-25T00:41:57.128Z,8.57
2022-11-25T00:44:36.983Z,7.63
2022-11-25T00:47:16.528Z,7.50
2022-11-25T00:49:49.472Z,7.30
2022-11-25T00:52:22.669Z,6.85
2022-11-25T00:54:50.705Z,7.17
2022-11-25T00:57:20.551Z,6.22
2022-11-25T00:59:47.933Z,6.20
2022-11-25T01:02:18.782Z,5.43
2022-11-25T01:04:46.404Z,5.57
2022-11-25T01:07:13.524Z,4.85
2022-11-25T01:09:40.386Z,4.97
2022-11-25T01:12:07.226Z,5.50
2022-11-25T01:14:34.892Z,5.07
2022-11-25T01:17:02.003Z,4.90
2022-11-25T01:19:28.900Z,5.38
2022-11-25T01:21:55.741Z,4.88
2022-11-25T01:24:24.034Z,4.30
2022-11-25T01:26:51.107Z,3.80
2022-11-25T01:29:19.391Z,3.85
2022-11-25T01:31:47.268Z,3.80
2022-11-25T01:34:21.999Z,3.75
2022-11-25T01:36:49.113Z,3.92
2022-11-25T01:39:30.449Z,3.47
2022-11-25T01:41:59.703Z,3.80
2022-11-25T01:44:32.720Z,3.20
2022-11-25T01:47:16.945Z,4.03
2022-11-25T01:49:49.760Z,3.10
2022-11-25T01:52:29.475Z,3.33
2022-11-25T01:55:17.330Z,2.80
2022-11-25T01:57:49.015Z,2.80
2022-11-25T02:00:16.852Z,2.95
2022-11-25T02:02:44.291Z,2.65
2022-11-25T02:05:16.749Z,4.00
2022-11-25T02:07:47.374Z,2.83
2022-11-25T02:10:24.269Z,3.00
2022-11-25T02:12:52.230Z,2.42
2022-11-25T02:15:19.774Z,3.00
2022-11-25T02:17:46.956Z,2.63
2022-11-25T02:20:17.569Z,2.40
2022-11-25T02:23:15.983Z,2.47
2022-11-25T02:25:45.111Z,2.53
2022-11-25T02:28:23.590Z,2.78
2022-11-25T02:30:51.645Z,2.40
2022-11-25T02:33:19.690Z,2.70
2022-11-25T02:35:59.493Z,2.58
2022-11-25T02:38:38.531Z,3.08
2022-11-25T02:41:33.701Z,2.72
2022-11-25T02:44:00.864Z,2.70
2022-11-25T02:46:28.670Z,3.58
2022-11-25T02:49:13.229Z,2.70
2022-11-25T02:54:11.889Z,2.75
2022-11-25T02:56:40.055Z,2.35
2022-11-25T02:59:07.630Z,2.30
2022-11-25T03:01:35.463Z,2.22
2022-11-25T03:04:02.650Z,3.28
2022-11-25T03:06:30.391Z,2.13
2022-11-25T03:08:58.145Z,2.58
2022-11-25T03:11:44.028Z,2.70
2022-11-25T03:14:10.962Z,2.50
2022-11-25T03:16:37.875Z,3.28
2022-11-25T03:19:05.506Z,2.60
2022-11-25T03:21:32.297Z,2.60
2022-11-25T03:23:59.045Z,3.40
2022-11-25T03:26:26.162Z,2.85
2022-11-25T03:28:53.178Z,2.55
2022-11-25T03:31:20.077Z,2.70
2022-11-25T03:33:46.862Z,1.83
2022-11-25T03:36:13.646Z,2.78
2022-11-25T03:38:40.523Z,2.40
2022-11-25T03:41:07.277Z,2.25
2022-11-25T03:43:35.468Z,2.20
2022-11-25T03:46:02.334Z,2.63
2022-11-25T03:48:29.207Z,3.00
2022-11-25T03:50:56.418Z,2.88
2022-11-25T03:53:23.177Z,1.77
2022-11-25T03:55:50.123Z,2.60
2022-11-25T03:58:16.961Z,2.70
2022-11-25T04:00:43.891Z,2.40
2022-11-25T04:03:10.787Z,2.08
2022-11-25T04:05:37.633Z,3.40
2022-11-25T04:08:04.624Z,3.63
2022-11-25T04:10:31.425Z,3.08
2022-11-25T04:12:58.208Z,2.33
2022-11-25T04:15:24.963Z,2.50
2022-11-25T04:17:51.754Z,2.08
2022-11-25T04:20:18.650Z,2.25
2022-11-25T04:22:45.519Z,2.40
2022-11-25T04:25:12.340Z,2.90
2022-11-25T04:27:39.181Z,2.20
2022-11-25T04:30:07.891Z,2.38
2022-11-25T04:32:37.157Z,2.30
2022-11-25T04:35:04.576Z,2.35
2022-11-25T04:37:31.347Z,2.33
2022-11-25T04:39:58.112Z,2.53
2022-11-25T04:42:34.546Z,2.50
2022-11-25T04:45:22.421Z,2.90
2022-11-25T04:47:50.288Z,2.35
2022-11-25T04:50:20.848Z,2.97
2022-11-25T04:52:47.612Z,1.95
2022-11-25T04:55:14.381Z,2.33
2022-11-25T04:57:41.308Z,2.97
2022-11-25T05:00:09.480Z,2.42
2022-11-25T05:02:36.370Z,2.88
2022-11-25T05:05:03.379Z,2.60
2022-11-25T05:07:30.433Z,3.20
2022-11-25T05:09:57.611Z,2.90
2022-11-25T05:12:35.158Z,2.53
2022-11-25T05:15:02.076Z,2.65
2022-11-25T05:17:31.336Z,2.80
2022-11-25T05:19:58.516Z,2.40
2022-11-25T05:22:29.713Z,2.53
2022-11-25T05:24:56.662Z,2.30
2022-11-25T05:27:24.700Z,2.17
2022-11-25T05:29:55.697Z,2.33
2022-11-25T05:32:23.672Z,2.47
2022-11-25T05:34:50.476Z,2.70
2022-11-25T05:37:21.281Z,3.10
2022-11-25T05:39:51.365Z,2.72
2022-11-25T05:42:18.436Z,3.20
2022-11-25T05:44:45.175Z,3.55
2022-11-25T05:47:11.914Z,2.53
2022-11-25T05:49:38.682Z,3.53
2022-11-25T05:52:05.565Z,3.30
2022-11-25T05:54:32.303Z,2.78
2022-11-25T05:56:59.101Z,2.95
2022-11-25T05:59:25.887Z,3.25
2022-11-25T06:01:55.905Z,2.95
2022-11-25T06:04:22.743Z,2.67
2022-11-25T06:06:49.545Z,2.88
2022-11-25T06:09:16.305Z,2.85
2022-11-25T06:11:43.067Z,3.88
2022-11-25T06:14:10.085Z,2.67
2022-11-25T06:16:36.907Z,2.60
2022-11-25T06:19:06.552Z,2.60
2022-11-25T06:21:33.406Z,2.05
2022-11-25T06:24:00.241Z,3.15
2022-11-25T06:26:27.021Z,2.33
2022-11-25T06:28:55.501Z,3.22
2022-11-25T06:31:25.310Z,2.70
2022-11-25T06:33:53.442Z,2.40
2022-11-25T06:36:21.856Z,2.50
2022-11-25T06:38:54.183Z,3.17
2022-11-25T06:41:23.901Z,3.08
2022-11-25T06:43:50.721Z,2.47
2022-11-25T06:46:24.407Z,2.83
2022-11-25T06:48:53.364Z,3.22
2022-11-25T06:51:20.406Z,2.88
2022-11-25T06:53:47.258Z,2.90
2022-11-25T06:56:23.910Z,2.88
2022-11-25T06:58:51.626Z,2.72
2022-11-25T07:01:25.275Z,2.58
2022-11-25T07:03:55.353Z,2.20
2022-11-25T07:06:22.749Z,2.55
2022-11-25T07:08:50.095Z,2.85
2022-11-25T07:11:25.945Z,2.55
2022-11-25T07:13:55.734Z,2.80
2022-11-25T07:16:22.642Z,3.05
2022-11-25T07:18:50.146Z,2.47
2022-11-25T07:21:20.357Z,3.35
2022-11-25T07:23:47.581Z,3.47
2022-11-25T07:26:21.702Z,2.70
2022-11-25T07:31:33.753Z,2.85
2022-11-25T07:36:31.763Z,2.63
2022-11-25T07:39:01.816Z,3.50
2022-11-25T07:41:29.799Z,3.15
2022-11-25T07:44:00.323Z,3.08
2022-11-25T07:46:34.012Z,2.97
2022-11-25T07:49:05.538Z,3.40
2022-11-25T07:51:42.059Z,3.33
2022-11-25T07:54:12.376Z,3.75
2022-11-25T07:56:41.851Z,3.00
2022-11-25T07:59:16.244Z,3.88
2022-11-25T08:01:44.033Z,3.80
2022-11-25T08:04:19.486Z,3.80
2022-11-25T08:06:49.486Z,4.00
2022-11-25T08:09:19.958Z,3.70
2022-11-25T08:11:47.738Z,3.78
2022-11-25T08:14:15.715Z,4.35
2022-11-25T08:16:43.231Z,5.55
2022-11-25T08:19:15.291Z,4.30
2022-11-25T08:21:42.426Z,3.63
2022-11-25T08:24:16.498Z,4.07
2022-11-25T08:26:43.327Z,4.03
2022-11-25T08:29:15.387Z,3.45
2022-11-25T08:31:43.063Z,3.38
2022-11-25T08:34:19.009Z,3.28
2022-11-25T08:36:48.636Z,5.15
2022-11-25T08:39:44.406Z,3.75
2022-11-25T08:42:04.731Z,3.65
2022-11-25T08:44:31.529Z,4.22
2022-11-25T08:46:58.441Z,4.78
2022-11-25T08:49:26.865Z,4.93
2022-11-25T08:51:53.652Z,3.58
2022-11-25T08:54:20.477Z,3.78
2022-11-25T08:56:47.280Z,3.00
2022-11-25T08:59:14.067Z,3.22
2022-11-25T09:01:40.878Z,2.72
2022-11-25T09:04:07.765Z,3.10
2022-11-25T09:06:34.521Z,2.95
2022-11-25T09:09:01.770Z,3.47
2022-11-25T09:11:29.222Z,3.72
2022-11-25T09:13:56.168Z,3.42
2022-11-25T09:16:24.358Z,3.08
2022-11-25T09:18:55.846Z,3.35
2022-11-25T09:21:25.328Z,3.20
2022-11-25T09:23:53.967Z,2.90
2022-11-25T09:26:30.305Z,3.65
2022-11-25T09:28:58.188Z,3.72
2022-11-25T09:31:25.131Z,3.38
2022-11-25T09:33:52.063Z,3.45
2022-11-25T09:36:20.545Z,2.63
2022-11-25T09:38:47.754Z,2.88
2022-11-25T09:41:52.234Z,2.88
2022-11-25T09:45:08.157Z,3.50
2022-11-25T09:48:01.398Z,3.67
2022-11-25T09:50:52.406Z,2.90
2022-11-25T09:53:57.428Z,3.05
2022-11-25T09:56:39.701Z,3.95
2022-11-25T09:59:22.225Z,3.22
2022-11-25T10:02:11.448Z,3.60
2022-11-25T10:04:47.801Z,3.75
2022-11-25T10:07:22.860Z,3.92
2022-11-25T10:09:49.647Z,3.72
2022-11-25T10:12:31.133Z,3.60
2022-11-25T10:15:05.056Z,3.05
2022-11-25T10:17:55.224Z,4.28
2022-11-25T10:20:36.996Z,3.65
2022-11-25T10:23:29.703Z,3.63
2022-11-25T10:26:03.411Z,3.50
2022-11-25T10:28:34.239Z,3.55
2022-11-25T10:31:19.641Z,3.42
2022-11-25T10:33:53.067Z,2.95
2022-11-25T10:36:40.412Z,4.00
2022-11-25T10:39:15.559Z,3.67
2022-11-25T10:42:12.617Z,3.92
2022-11-25T10:44:41.581Z,3.33
2022-11-25T10:47:26.970Z,3.08
2022-11-25T10:50:27.893Z,3.20
2022-11-25T10:53:12.093Z,4.15
2022-11-25T10:55:39.326Z,3.67
2022-11-25T10:58:30.361Z,3.90
2022-11-25T11:01:25.483Z,3.72
2022-11-25T11:04:14.894Z,3.58
2022-11-25T11:06:44.856Z,3.65
2022-11-25T11:09:40.812Z,3.42
2022-11-25T11:12:25.967Z,3.72
2022-11-25T11:15:15.326Z,4.25
2022-11-25T11:17:42.071Z,4.50
2022-11-25T11:20:08.693Z,4.70
2022-11-25T11:22:36.964Z,5.93
2022-11-25T11:25:27.633Z,4.60
2022-11-25T11:27:55.188Z,4.32
2022-11-25T11:30:26.140Z,4.10
2022-11-25T11:33:29.987Z,3.40
2022-11-25T11:36:12.974Z,3.92
2022-11-25T11:39:14.880Z,3.10
2022-11-25T11:42:28.691Z,3.05
2022-11-25T11:45:32.771Z,3.55
2022-11-25T11:48:21.188Z,2.78
2022-11-25T11:51:20.324Z,3.30
2022-11-25T11:54:18.207Z,3.40
2022-11-25T11:56:55.598Z,3.15
2022-11-25T11:59:31.468Z,3.50
2022-11-25T12:02:31.961Z,3.53
2022-11-25T12:05:10.880Z,4.07
2022-11-25T12:08:05.048Z,3.35
2022-11-25T12:10:58.243Z,3.53
2022-11-25T12:13:46.933Z,3.13
2022-11-25T12:16:30.523Z,3.20
2022-11-25T12:19:39.808Z,3.27
2022-11-25T12:22:11.433Z,3.13
2022-11-25T12:25:02.014Z,3.28
2022-11-25T12:27:38.724Z,3.08
2022-11-25T12:30:10.776Z,3.30
2022-11-25T12:33:03.745Z,3.58
2022-11-25T12:35:59.883Z,3.50
2022-11-25T12:38:38.661Z,3.15
2022-11-25T12:41:30.744Z,4.07
2022-11-25T12:44:30.622Z,4.07
2022-11-25T12:46:58.788Z,3.70
2022-11-25T12:49:48.153Z,3.45
2022-11-25T12:53:12.549Z,4.50
2022-11-25T12:55:40.946Z,4.63
2022-11-25T12:58:22.622Z,4.32
2022-11-25T13:01:32.135Z,4.18
2022-11-25T13:04:35.769Z,3.40
2022-11-25T13:07:26.149Z,3.65
2022-11-25T13:10:29.371Z,3.55
2022-11-25T13:13:20.257Z,4.05
2022-11-25T13:15:53.125Z,3.45
2022-11-25T13:18:27.366Z,4.10
2022-11-25T13:20:55.955Z,4.40
2022-11-25T13:23:26.911Z,3.75
2022-11-25T13:26:37.060Z,3.75
2022-11-25T13:29:26.909Z,3.90
2022-11-25T13:32:03.159Z,4.18
2022-11-25T13:34:35.141Z,3.80
2022-11-25T13:37:36.876Z,4.13
2022-11-25T13:40:20.089Z,4.10
2022-11-25T13:42:46.973Z,4.32
2022-11-25T13:45:44.784Z,4.60
2022-11-25T13:48:20.944Z,3.88
2022-11-25T13:51:10.770Z,4.10
2022-11-25T13:53:37.871Z,3.67
2022-11-25T13:56:30.968Z,4.40
2022-11-25T13:59:16.935Z,4.18
2022-11-25T14:01:46.760Z,3.85
2022-11-25T14:04:15.696Z,3.72
2022-11-25T14:07:00.809Z,5.10
2022-11-25T14:10:10.256Z,3.53
2022-11-25T14:13:20.238Z,3.63
2022-11-25T14:16:02.316Z,4.00
2022-11-25T14:22:00.300Z,4.55
2022-11-25T14:24:41.456Z,4.07
2022-11-25T14:27:26.497Z,5.10
2022-11-25T14:29:59.364Z,4.57
2022-11-25T14:32:53.121Z,4.40
2022-11-25T14:35:32.976Z,3.88
2022-11-25T14:38:05.179Z,4.68
2022-11-25T14:40:42.080Z,4.57
2022-11-25T14:43:20.949Z,3.53
2022-11-25T14:45:48.006Z,3.83
2022-11-25T14:48:25.898Z,5.28
2022-11-25T14:51:01.518Z,3.95
2022-11-25T14:53:30.101Z,4.80
2022-11-25T14:56:00.262Z,4.40
2022-11-25T14:58:27.475Z,4.25
2022-11-25T15:01:18.086Z,4.22
2022-11-25T15:03:48.294Z,4.63
2022-11-25T15:06:16.513Z,5.88
2022-11-25T15:08:46.551Z,4.35
2022-11-25T15:11:20.131Z,4.63
2022-11-25T15:14:03.031Z,4.63
2022-11-25T15:16:40.158Z,4.03
2022-11-25T15:19:26.040Z,4.63
2022-11-25T15:24:55.637Z,4.60
2022-11-25T15:27:28.695Z,5.10
2022-11-25T15:29:57.157Z,6.22
2022-11-25T15:32:32.339Z,6.43
2022-11-25T15:35:01.683Z,6.40
2022-11-25T15:37:29.026Z,5.97
2022-11-25T15:40:30.777Z,5.93
2022-11-25T15:43:00.432Z,5.75
2022-11-25T15:45:42.511Z,6.03
2022-11-25T15:48:27.222Z,6.38
2022-11-25T15:53:36.767Z,5.85
2022-11-25T15:56:06.730Z,6.97
2022-11-25T15:58:33.618Z,6.70
2022-11-25T16:01:21.247Z,7.50
2022-11-25T16:03:49.471Z,7.85
2022-11-25T16:06:26.865Z,7.03
2022-11-25T16:09:02.612Z,6.47
2022-11-25T16:11:33.500Z,8.00
2022-11-25T16:14:30.551Z,6.85
2022-11-25T16:17:12.073Z,6.03
2022-11-25T16:19:44.666Z,7.07
2022-11-25T16:22:18.762Z,6.25
2022-11-25T16:25:01.922Z,8.27
2022-11-25T16:27:29.887Z,7.05
2022-11-25T16:30:06.004Z,7.10
2022-11-25T16:32:34.144Z,6.85
2022-11-25T16:35:27.408Z,7.18
2022-11-25T16:37:58.177Z,7.32
2022-11-25T16:40:27.215Z,6.85
2022-11-25T16:42:54.051Z,7.20
2022-11-25T16:45:23.937Z,7.32
2022-11-25T16:47:50.863Z,7.38
2022-11-25T16:50:19.691Z,7.50
2022-11-25T16:52:46.613Z,6.82
2022-11-25T16:55:13.673Z,7.65
2022-11-25T16:57:42.910Z,7.15
2022-11-25T17:00:16.814Z,7.40
2022-11-25T17:02:44.777Z,7.47
2022-11-25T17:05:19.189Z,7.85
2022-11-25T17:10:13.244Z,7.65
2022-11-25T17:12:42.360Z,8.45
2022-11-25T17:15:17.148Z,9.27
2022-11-25T17:17:47.500Z,8.77
2022-11-25T17:20:17.805Z,10.60
2022-11-25T17:22:44.617Z,8.85
2022-11-25T17:25:14.638Z,9.18
2022-11-25T17:27:42.275Z,9.80
2022-11-25T17:30:23.749Z,9.30
2022-11-25T17:33:02.218Z,9.65
2022-11-25T17:35:29.077Z,10.05
2022-11-25T17:37:58.505Z,10.77
2022-11-25T17:40:25.403Z,10.68
2022-11-25T17:42:52.488Z,11.65
2022-11-25T17:45:21.567Z,11.38
2022-11-25T17:47:48.527Z,12.48
2022-11-25T17:50:22.788Z,11.95
2022-11-25T17:55:19.483Z,11.93
2022-11-25T17:57:47.932Z,11.73
2022-11-25T18:00:19.670Z,12.15
2022-11-25T18:02:47.321Z,11.75
2022-11-25T18:05:20.283Z,12.40
2022-11-25T18:07:47.497Z,11.57
2022-11-25T18:10:17.431Z,11.93
2022-11-25T18:12:46.593Z,11.20
2022-11-25T18:15:20.699Z,11.48
2022-11-25T18:17:48.735Z,10.75
2022-11-25T18:20:26.277Z,12.00
2022-11-25T18:22:53.662Z,10.18
2022-11-25T18:25:24.915Z,11.43
2022-11-25T18:27:56.782Z,11.23
2022-11-25T18:30:28.196Z,11.43
2022-11-25T18:32:56.219Z,12.57
2022-11-25T18:35:31.091Z,10.85
2022-11-25T18:38:01.043Z,11.48
2022-11-25T18:40:29.221Z,10.90
2022-11-25T18:43:00.358Z,11.45
2022-11-25T18:45:40.268Z,12.93
2022-11-25T18:48:14.800Z,14.20
2022-11-25T18:50:43.212Z,14.07
2022-11-25T18:53:09.981Z,12.95
2022-11-25T18:55:37.284Z,13.50
2022-11-25T18:58:19.022Z,12.48
2022-11-25T19:00:50.994Z,11.77
2022-11-25T19:03:25.851Z,12.77
2022-11-25T19:05:54.303Z,12.32
2022-11-25T19:08:21.500Z,11.60
2022-11-25T19:10:48.976Z,10.95
2022-11-25T19:13:34.704Z,11.98
2022-11-25T19:16:08.643Z,11.07
2022-11-25T19:18:35.644Z,11.77
2022-11-25T19:21:02.438Z,12.32
2022-11-25T19:23:29.252Z,11.15
2022-11-25T19:26:04.807Z,11.57
2022-11-25T19:28:32.059Z,9.93
2022-11-25T19:31:04.312Z,10.77
2022-11-25T19:33:37.216Z,12.05
2022-11-25T19:36:05.998Z,11.43
2022-11-25T19:38:34.692Z,11.35
2022-11-25T19:41:01.621Z,13.00
2022-11-25T19:43:28.439Z,11.15
2022-11-25T19:45:57.308Z,10.88
2022-11-25T19:48:26.970Z,11.65
2022-11-25T19:50:59.384Z,12.32
2022-11-25T19:53:33.043Z,11.20
2022-11-25T19:56:03.933Z,10.70
2022-11-25T19:58:31.249Z,12.35
2022-11-25T20:01:02.845Z,11.45
2022-11-25T20:03:31.084Z,12.30
2022-11-25T20:05:58.492Z,10.98
2022-11-25T20:08:28.912Z,11.63
2022-11-25T20:10:57.703Z,11.02
2022-11-25T20:13:25.871Z,11.93
2022-11-25T20:15:55.209Z,13.48
2022-11-25T20:18:26.017Z,21.55
2022-11-25T20:21:02.407Z,22.40
2022-11-25T20:23:44.355Z,24.52
2022-11-25T20:26:35.407Z,16.92
2022-11-25T20:29:03.269Z,12.38
2022-11-25T20:31:30.677Z,11.35
2022-11-25T20:33:57.959Z,11.38
2022-11-25T20:36:31.624Z,10.05
2022-11-25T20:38:59.707Z,11.45
2022-11-25T20:41:28.088Z,10.30
2022-11-25T20:43:56.466Z,10.60
2022-11-25T20:46:28.924Z,10.13
2022-11-25T20:48:59.386Z,10.65
2022-11-25T20:51:26.704Z,10.45
2022-11-25T20:53:57.701Z,9.65
2022-11-25T20:56:27.334Z,10.48
2022-11-25T20:58:54.196Z,10.32
2022-11-25T21:01:21.068Z,10.13
2022-11-25T21:03:49.523Z,10.45
2022-11-25T21:06:25.678Z,10.63
2022-11-25T21:08:54.036Z,10.10
2022-11-25T21:11:22.650Z,10.55
2022-11-25T21:13:50.426Z,10.48
2022-11-25T21:16:17.523Z,10.50
2022-11-25T21:18:44.590Z,9.50
2022-11-25T21:21:31.593Z,10.90
2022-11-25T21:24:10.368Z,10.13
2022-11-25T21:26:37.155Z,10.55
2022-11-25T21:29:03.962Z,10.07
2022-11-25T21:31:30.815Z,10.13
2022-11-25T21:33:59.167Z,10.52
2022-11-25T21:36:29.955Z,10.07
2022-11-25T21:39:09.030Z,10.00
2022-11-25T21:41:48.655Z,11.23
2022-11-25T21:44:39.889Z,9.75
2022-11-25T21:47:26.340Z,10.60
2022-11-25T21:49:53.617Z,10.50
2022-11-25T21:52:20.525Z,10.73
2022-11-25T21:54:47.478Z,9.95
2022-11-25T21:57:22.132Z,10.95
2022-11-25T21:59:49.277Z,11.00
2022-11-25T22:02:19.608Z,10.70
2022-11-25T22:04:46.616Z,10.65
2022-11-25T22:07:13.762Z,10.65
2022-11-25T22:09:41.232Z,11.63
2022-11-25T22:12:27.125Z,12.75
2022-11-25T22:14:54.301Z,11.13
2022-11-25T22:17:21.121Z,11.02
2022-11-25T22:19:47.959Z,10.98
2022-11-25T22:22:16.452Z,12.07
2022-11-25T22:24:43.636Z,11.93
2022-11-25T22:27:26.104Z,10.98
2022-11-25T22:29:53.132Z,11.23
2022-11-25T22:32:20.266Z,12.88
2022-11-25T22:34:47.317Z,12.48
2022-11-25T22:37:22.986Z,12.75
2022-11-25T22:39:50.333Z,12.50
2022-11-25T22:42:30.003Z,10.98
2022-11-25T22:44:58.869Z,10.52
2022-11-25T22:47:31.990Z,10.55
2022-11-25T22:50:02.286Z,11.07
2022-11-25T22:52:35.408Z,11.40
2022-11-25T22:55:14.514Z,11.68
2022-11-25T22:57:41.388Z,11.68
2022-11-25T23:00:12.141Z,10.27
2022-11-25T23:02:38.978Z,11.60
2022-11-25T23:05:16.469Z,12.05
2022-11-25T23:07:43.641Z,12.13
2022-11-25T23:10:25.384Z,11.82
2022-11-25T23:12:52.512Z,11.30
2022-11-25T23:15:22.604Z,11.82
2022-11-25T23:17:59.261Z,11.10
2022-11-25T23:20:36.463Z,12.68
2022-11-25T23:23:14.681Z,11.88
2022-11-25T23:25:42.777Z,12.18
2022-11-25T23:28:09.840Z,12.43
2022-11-25T23:30:37.043Z,13.00
2022-11-25T23:33:09.297Z,13.57
2022-11-25T23:35:38.359Z,12.68
2022-11-25T23:38:16.857Z,12.40
2022-11-25T23:40:44.028Z,13.70
2022-11-25T23:43:15.742Z,12.98
2022-11-25T23:45:55.148Z,13.05
2022-11-25T23:48:28.305Z,12.65
2022-11-25T23:50:57.092Z,14.10
2022-11-25T23:53:32.026Z,13.27
2022-11-25T23:55:58.928Z,13.07
2022-11-25T23:58:25.892Z,12.93
